Time;durP1;ratioP1;P1;durP2;ratioP2;P2;SDS_P1;SDS_P2;PMS_P1;PMS_P2;Temp;Humidity;BMP_temperature;BMP_pressure;BME280_temperature;BME280_humidity;BME280_pressure;Samples;Min_cycle;Max_cycle;Signal;HPM_P1;HPM_P2
2023/04/27 00:00:59;;;;;;;13.73;5.30;;;11.20;99.90;;;;;;5003045;28;20356;-90
2023/04/27 00:03:26;;;;;;;19.13;5.18;;;11.20;99.90;;;;;;5019357;28;20045;-90
2023/04/27 00:05:52;;;;;;;21.90;5.68;;;11.10;99.90;;;;;;5002896;28;20030;-91
2023/04/27 00:08:18;;;;;;;18.98;5.68;;;11.10;99.90;;;;;;5019065;28;20069;-90
2023/04/27 00:10:45;;;;;;;12.18;4.80;;;11.10;99.90;;;;;;5002887;28;20034;-93
2023/04/27 00:13:11;;;;;;;11.65;5.55;;;11.10;99.90;;;;;;5019629;28;20463;-90
2023/04/27 00:15:38;;;;;;;16.08;5.97;;;11.10;99.90;;;;;;5003665;28;20036;-91
2023/04/27 00:18:04;;;;;;;20.73;6.85;;;11.10;99.90;;;;;;5019606;28;20129;-91
2023/04/27 00:20:32;;;;;;;18.92;5.60;;;11.10;99.90;;;;;;5000159;28;20022;-91
2023/04/27 00:22:59;;;;;;;8.55;4.95;;;11.10;99.90;;;;;;4999789;28;20117;-90
2023/04/27 00:25:25;;;;;;;13.18;5.10;;;11.10;99.90;;;;;;4999770;28;20518;-91
2023/04/27 00:27:51;;;;;;;11.50;4.70;;;11.10;99.90;;;;;;4999639;28;20037;-93
2023/04/27 00:30:18;;;;;;;13.77;5.05;;;11.10;99.90;;;;;;5015776;28;20138;-93
2023/04/27 00:32:45;;;;;;;16.88;5.38;;;11.10;99.90;;;;;;4999690;28;20117;-91
2023/04/27 00:35:16;;;;;;;16.38;5.22;;;11.10;99.90;;;;;;5015936;28;20026;-90
2023/04/27 00:37:42;;;;;;;13.80;5.10;;;11.10;99.90;;;;;;4999706;28;20034;-90
2023/04/27 00:40:09;;;;;;;16.10;5.15;;;11.10;99.90;;;;;;4999621;28;20057;-91
2023/04/27 00:42:36;;;;;;;15.38;4.90;;;11.10;99.90;;;;;;4999498;28;20040;-90
2023/04/27 00:45:04;;;;;;;20.50;5.60;;;11.10;99.90;;;;;;4999362;28;20022;-93
2023/04/27 00:47:34;;;;;;;11.05;5.07;;;11.10;99.90;;;;;;4999257;28;20458;-94
2023/04/27 00:50:03;;;;;;;20.63;4.90;;;11.20;99.90;;;;;;4999675;28;20513;-93
2023/04/27 00:52:30;;;;;;;12.57;5.60;;;11.30;99.90;;;;;;4999282;28;20109;-93
2023/04/27 00:54:57;;;;;;;12.80;5.05;;;11.30;99.90;;;;;;4999383;28;20030;-91
2023/04/27 00:57:24;;;;;;;17.02;5.20;;;11.40;99.90;;;;;;4999604;28;20112;-92
2023/04/27 00:59:51;;;;;;;16.75;4.57;;;11.30;99.90;;;;;;4999758;28;20030;-91
2023/04/27 01:02:17;;;;;;;8.80;4.65;;;11.40;99.90;;;;;;4999331;28;20148;-92
2023/04/27 01:04:45;;;;;;;14.95;4.68;;;11.40;99.90;;;;;;4999511;28;20041;-90
2023/04/27 01:07:16;;;;;;;21.33;4.68;;;11.50;99.90;;;;;;4999108;28;20371;-91
2023/04/27 01:09:42;;;;;;;18.75;5.00;;;11.50;99.90;;;;;;4998972;28;20052;-92
2023/04/27 01:12:08;;;;;;;14.13;4.85;;;11.60;99.90;;;;;;4998850;28;20087;-92
2023/04/27 01:14:38;;;;;;;15.48;4.53;;;11.60;99.90;;;;;;4999064;28;20037;-93
2023/04/27 01:17:04;;;;;;;17.70;4.50;;;11.70;99.90;;;;;;4998944;28;20034;-92
2023/04/27 01:19:31;;;;;;;16.50;5.10;;;11.60;99.90;;;;;;4998811;28;20030;-92
2023/04/27 01:21:57;;;;;;;17.70;4.22;;;11.70;99.90;;;;;;4998716;28;20034;-92
2023/04/27 01:24:24;;;;;;;19.58;4.85;;;11.70;99.90;;;;;;4998762;28;20029;-91
2023/04/27 01:26:52;;;;;;;17.83;4.60;;;11.70;99.90;;;;;;4998660;28;20026;-90
2023/04/27 01:29:20;;;;;;;12.88;4.07;;;11.80;99.90;;;;;;4998679;28;20462;-91
2023/04/27 01:31:46;;;;;;;17.85;4.13;;;11.80;99.90;;;;;;4997235;28;20490;-90
2023/04/27 01:34:15;;;;;;;13.10;4.30;;;11.90;99.90;;;;;;4998785;28;20080;-92
2023/04/27 01:36:42;;;;;;;19.73;4.03;;;11.90;99.90;;;;;;4998607;28;20077;-91
2023/04/27 01:39:08;;;;;;;16.77;4.35;;;11.90;99.90;;;;;;4998590;28;20033;-91
2023/04/27 01:41:38;;;;;;;17.25;3.83;;;12.00;99.90;;;;;;4998211;28;20041;-91
2023/04/27 01:44:05;;;;;;;15.90;4.13;;;12.10;99.90;;;;;;4998270;28;20117;-92
2023/04/27 01:46:32;;;;;;;10.50;4.50;;;12.10;99.90;;;;;;4998456;28;20120;-89
2023/04/27 01:48:58;;;;;;;16.55;4.40;;;12.10;99.90;;;;;;4998620;28;20037;-90
2023/04/27 01:51:25;;;;;;;13.68;4.03;;;12.10;99.90;;;;;;4998244;28;20029;-92
2023/04/27 01:53:52;;;;;;;15.27;3.92;;;12.10;99.90;;;;;;4998105;28;20148;-90
2023/04/27 01:56:18;;;;;;;17.00;4.47;;;12.10;99.90;;;;;;4998073;28;20103;-90
2023/04/27 01:58:45;;;;;;;12.63;3.92;;;12.10;99.90;;;;;;4998365;28;20038;-92
2023/04/27 02:01:13;;;;;;;19.35;4.72;;;12.10;99.90;;;;;;4998138;28;20022;-91
2023/04/27 02:03:40;;;;;;;19.45;4.45;;;12.00;99.90;;;;;;4997942;28;20053;-91
2023/04/27 02:06:07;;;;;;;13.65;4.32;;;12.00;99.90;;;;;;4997914;28;20034;-90
2023/04/27 02:08:35;;;;;;;16.48;4.82;;;12.00;99.90;;;;;;4997652;28;20430;-93
2023/04/27 02:11:02;;;;;;;16.92;4.53;;;11.90;99.90;;;;;;4997785;28;20557;-90
2023/04/27 02:13:28;;;;;;;15.02;4.45;;;11.90;99.90;;;;;;4997486;28;20030;-92
2023/04/27 02:15:55;;;;;;;13.43;4.47;;;11.90;99.90;;;;;;4997834;28;20041;-92
2023/04/27 02:18:23;;;;;;;10.52;3.70;;;11.80;99.90;;;;;;4997791;28;20029;-92
2023/04/27 02:20:50;;;;;;;16.70;4.97;;;11.80;99.90;;;;;;4997746;28;20029;-91
2023/04/27 02:23:16;;;;;;;11.32;4.20;;;11.70;99.90;;;;;;4997610;28;20427;-92
2023/04/27 02:25:45;;;;;;;9.85;3.75;;;11.70;99.90;;;;;;4997463;28;20022;-94
2023/04/27 02:28:13;;;;;;;11.48;3.75;;;11.70;99.90;;;;;;4997942;28;20025;-92
2023/04/27 02:30:39;;;;;;;15.57;3.75;;;11.70;99.90;;;;;;4997929;28;20024;-92
2023/04/27 02:33:06;;;;;;;9.98;4.07;;;11.70;99.90;;;;;;4997672;28;20026;-91
2023/04/27 02:35:32;;;;;;;13.15;4.63;;;11.70;99.90;;;;;;4997346;28;20133;-90
2023/04/27 02:37:59;;;;;;;11.35;4.43;;;11.70;99.90;;;;;;4997401;28;20119;-92
2023/04/27 02:40:26;;;;;;;16.08;4.30;;;11.70;99.90;;;;;;4997425;28;20079;-91
2023/04/27 02:42:52;;;;;;;9.82;4.35;;;11.70;99.90;;;;;;4996875;28;20038;-92
2023/04/27 02:45:19;;;;;;;11.35;4.55;;;11.70;99.90;;;;;;4997315;28;20080;-91
2023/04/27 02:47:45;;;;;;;9.45;4.25;;;11.70;99.90;;;;;;4997319;28;20034;-91
2023/04/27 02:50:13;;;;;;;12.13;4.15;;;11.70;99.90;;;;;;4997377;28;20030;-92
2023/04/27 02:52:40;;;;;;;13.18;4.53;;;11.70;99.90;;;;;;4997238;28;20080;-92
2023/04/27 02:55:07;;;;;;;11.73;4.00;;;11.70;99.90;;;;;;4997213;28;20026;-92
2023/04/27 02:57:33;;;;;;;9.05;4.47;;;11.70;99.90;;;;;;4996918;28;20108;-91
2023/04/27 02:59:59;;;;;;;9.25;4.15;;;11.70;99.90;;;;;;4997253;28;20034;-91
2023/04/27 03:02:26;;;;;;;10.25;4.68;;;11.70;99.90;;;;;;4997275;28;20028;-90
2023/04/27 03:04:54;;;;;;;11.00;4.30;;;11.70;99.90;;;;;;4996946;28;20030;-91
2023/04/27 03:07:21;;;;;;;10.70;4.60;;;11.60;99.90;;;;;;4997048;28;20022;-92
2023/04/27 03:09:48;;;;;;;11.05;4.43;;;11.60;99.90;;;;;;4996811;28;20499;-91
2023/04/27 03:12:14;;;;;;;10.27;4.30;;;11.60;99.90;;;;;;4996867;28;20077;-89
2023/04/27 03:14:41;;;;;;;8.98;3.78;;;11.60;99.90;;;;;;4996976;28;20033;-89
2023/04/27 03:17:07;;;;;;;14.65;4.25;;;11.60;99.90;;;;;;4996826;28;20065;-91
2023/04/27 03:19:34;;;;;;;12.10;4.40;;;11.60;99.90;;;;;;4997025;28;20541;-91
2023/04/27 03:22:00;;;;;;;10.20;4.13;;;11.60;99.90;;;;;;4997159;28;20038;-89
2023/04/27 03:24:27;;;;;;;10.23;4.03;;;11.60;99.90;;;;;;4997027;28;20122;-91
2023/04/27 03:26:53;;;;;;;8.05;4.07;;;11.60;99.90;;;;;;4996779;28;20026;-92
2023/04/27 03:29:20;;;;;;;12.40;4.63;;;11.60;99.90;;;;;;4996937;28;20033;-90
2023/04/27 03:31:47;;;;;;;9.13;4.57;;;11.60;99.90;;;;;;4996879;28;20053;-91
2023/04/27 03:34:13;;;;;;;11.70;4.00;;;11.50;99.90;;;;;;4996780;28;20399;-92
2023/04/27 03:36:40;;;;;;;10.80;4.93;;;11.50;99.90;;;;;;5011999;28;20029;-91
2023/04/27 03:39:09;;;;;;;15.40;4.60;;;11.60;99.90;;;;;;5016722;28;20032;-91
2023/04/27 03:41:36;;;;;;;11.18;4.03;;;11.60;99.90;;;;;;5033013;28;20454;-90
2023/04/27 03:44:02;;;;;;;12.82;4.20;;;11.60;99.90;;;;;;5016420;28;20471;-90
2023/04/27 03:46:29;;;;;;;12.40;4.18;;;11.60;99.90;;;;;;5032832;28;20029;-91
2023/04/27 03:48:55;;;;;;;10.98;4.00;;;11.60;99.90;;;;;;5016183;28;20026;-91
2023/04/27 03:51:21;;;;;;;11.00;4.43;;;11.60;99.90;;;;;;5032450;28;20041;-91
2023/04/27 03:53:48;;;;;;;16.45;4.82;;;11.70;99.90;;;;;;5016421;28;20025;-92
2023/04/27 03:56:15;;;;;;;11.55;4.50;;;11.60;99.90;;;;;;5035396;28;20042;-91
2023/04/27 03:58:41;;;;;;;12.60;4.63;;;11.60;99.90;;;;;;5020124;28;20068;-89
2023/04/27 04:01:27;;;;;;;18.13;5.05;;;11.60;99.90;;;;;;5036045;28;20482;-89
2023/04/27 04:03:55;;;;;;;12.02;5.65;;;11.60;99.90;;;;;;5020514;28;20550;-90
2023/04/27 04:06:25;;;;;;;15.57;4.80;;;11.60;99.90;;;;;;5019662;28;20052;-90
2023/04/27 04:08:51;;;;;;;9.55;4.20;;;11.60;99.90;;;;;;5019708;28;20049;-89
2023/04/27 04:11:18;;;;;;;10.63;4.75;;;11.60;99.90;;;;;;5019666;28;20032;-89
2023/04/27 04:13:44;;;;;;;9.30;4.30;;;11.60;99.90;;;;;;5019631;28;20040;-90
2023/04/27 04:16:12;;;;;;;9.98;4.50;;;11.60;99.90;;;;;;5019341;28;20079;-92
2023/04/27 04:18:45;;;;;;;6.22;4.63;;;11.60;99.90;;;;;;5036109;28;20552;-91
2023/04/27 04:21:12;;;;;;;6.20;4.45;;;11.70;99.90;;;;;;5035940;28;20075;-89
2023/04/27 04:23:39;;;;;;;9.90;4.68;;;11.70;99.90;;;;;;5006671;28;20029;-88
2023/04/27 04:26:07;;;;;;;8.02;4.40;;;11.70;99.90;;;;;;5012586;28;20042;-90
2023/04/27 04:28:35;;;;;;;12.25;4.75;;;11.70;99.90;;;;;;5014967;28;20037;-89
2023/04/27 04:31:02;;;;;;;9.82;4.38;;;11.70;99.90;;;;;;4997797;28;20118;-89
2023/04/27 04:33:32;;;;;;;5.22;4.35;;;11.80;99.90;;;;;;5008480;28;20070;-92
2023/04/27 04:35:59;;;;;;;13.90;4.30;;;11.80;99.90;;;;;;4979858;28;20065;-89
2023/04/27 04:38:26;;;;;;;9.60;4.82;;;11.90;99.90;;;;;;4996240;28;20041;-90
2023/04/27 04:40:53;;;;;;;11.23;4.60;;;12.00;99.90;;;;;;4991190;28;20026;-91
2023/04/27 04:43:20;;;;;;;9.38;4.40;;;12.00;99.90;;;;;;5016104;28;20030;-90
2023/04/27 04:45:47;;;;;;;7.55;4.35;;;12.10;99.90;;;;;;5013162;28;20041;-91
2023/04/27 04:48:18;;;;;;;11.70;4.88;;;12.20;99.90;;;;;;5006123;28;20014;-91
2023/04/27 04:50:46;;;;;;;15.77;5.68;;;12.30;99.90;;;;;;5007803;28;20395;-90
2023/04/27 04:53:12;;;;;;;11.32;5.43;;;12.40;99.90;;;;;;4990971;28;20019;-90
2023/04/27 04:55:39;;;;;;;6.63;5.88;;;12.70;99.90;;;;;;4995683;28;20038;-89
2023/04/27 04:58:07;;;;;;;14.38;6.68;;;13.30;99.90;;;;;;4995561;28;20137;-90
2023/04/27 05:00:34;;;;;;;14.40;7.50;;;14.40;99.90;;;;;;5015153;28;20109;-89
2023/04/27 05:03:01;;;;;;;9.63;8.80;;;15.40;99.90;;;;;;4983946;28;20085;-91
2023/04/27 05:05:28;;;;;;;11.52;10.73;;;16.30;99.90;;;;;;4995403;28;20483;-90
2023/04/27 05:07:54;;;;;;;14.35;13.15;;;17.20;99.90;;;;;;4979095;28;20333;-92
2023/04/27 05:10:21;;;;;;;14.15;13.02;;;17.80;99.90;;;;;;4979360;28;20109;-90
2023/04/27 05:12:48;;;;;;;19.45;11.90;;;18.00;99.90;;;;;;4995402;28;20069;-90
2023/04/27 05:15:14;;;;;;;13.85;11.75;;;17.50;99.90;;;;;;4987127;28;20025;-91
2023/04/27 05:17:41;;;;;;;12.18;11.20;;;17.70;99.90;;;;;;4979341;28;20484;-90
2023/04/27 05:20:08;;;;;;;13.90;12.00;;;18.10;99.90;;;;;;4992437;28;20077;-89
2023/04/27 05:22:35;;;;;;;17.08;12.32;;;18.40;99.90;;;;;;4998586;28;20034;-91
2023/04/27 05:25:03;;;;;;;13.68;12.65;;;18.30;99.90;;;;;;5014651;28;20100;-90
2023/04/27 05:27:30;;;;;;;15.45;14.00;;;18.50;99.90;;;;;;4998448;28;20427;-90
2023/04/27 05:29:56;;;;;;;15.30;13.90;;;18.80;99.90;;;;;;4992462;28;20026;-90
2023/04/27 05:32:23;;;;;;;15.80;14.73;;;18.70;99.90;;;;;;4978966;28;20026;-91
2023/04/27 05:34:50;;;;;;;17.67;16.20;;;18.80;99.90;;;;;;4978932;28;20121;-90
2023/04/27 05:37:16;;;;;;;19.10;17.40;;;19.40;99.90;;;;;;4978682;28;20030;-90
2023/04/27 05:39:43;;;;;;;18.83;17.40;;;19.30;99.90;;;;;;5001167;28;20029;-89
2023/04/27 05:42:10;;;;;;;19.60;17.60;;;19.30;99.90;;;;;;5017848;28;20040;-91
2023/04/27 05:44:36;;;;;;;19.58;18.02;;;19.10;99.90;;;;;;5017789;28;20030;-90
2023/04/27 05:47:03;;;;;;;19.77;18.20;;;19.40;99.90;;;;;;5017613;28;20033;-92
2023/04/27 05:49:30;;;;;;;19.70;18.10;;;19.30;99.90;;;;;;5017659;28;20030;-92
2023/04/27 05:51:57;;;;;;;19.02;17.88;;;19.70;99.90;;;;;;5017596;28;20041;-90
2023/04/27 05:54:24;;;;;;;19.50;18.30;;;19.70;99.90;;;;;;5017815;28;20022;-91
2023/04/27 05:56:51;;;;;;;19.98;18.33;;;19.90;99.90;;;;;;5017581;28;20034;-91
2023/04/27 05:59:21;;;;;;;19.58;17.75;;;19.70;99.90;;;;;;5017967;28;20028;-90
2023/04/27 06:01:48;;;;;;;19.52;18.00;;;19.60;99.90;;;;;;5017700;28;20478;-89
2023/04/27 06:04:14;;;;;;;19.88;18.27;;;20.20;99.90;;;;;;5018132;28;20044;-91
2023/04/27 06:06:41;;;;;;;19.05;17.67;;;19.90;99.90;;;;;;5000853;28;20026;-91
2023/04/27 06:09:08;;;;;;;19.55;18.15;;;19.70;99.90;;;;;;4997384;28;20133;-89
2023/04/27 06:11:34;;;;;;;19.55;17.85;;;19.60;99.90;;;;;;4997948;28;20084;-91
2023/04/27 06:14:01;;;;;;;20.13;18.40;;;19.70;99.90;;;;;;4998153;28;20022;-91
2023/04/27 06:16:28;;;;;;;19.25;17.88;;;19.70;99.90;;;;;;4997311;28;20116;-90
2023/04/27 06:18:55;;;;;;;19.65;18.27;;;20.00;99.90;;;;;;4997092;28;20060;-90
2023/04/27 06:21:22;;;;;;;20.25;18.65;;;20.50;99.90;;;;;;4997715;28;20438;-91
2023/04/27 06:23:49;;;;;;;20.65;19.10;;;21.20;99.90;;;;;;4997657;28;20075;-89
2023/04/27 06:26:15;;;;;;;21.23;19.50;;;21.30;99.90;;;;;;4997680;28;20034;-90
2023/04/27 06:28:42;;;;;;;21.15;19.35;;;21.60;99.90;;;;;;4997353;28;20482;-91
2023/04/27 06:31:08;;;;;;;19.45;18.33;;;21.80;99.90;;;;;;4997532;28;20061;-90
2023/04/27 06:33:35;;;;;;;20.30;18.90;;;22.10;99.90;;;;;;4994060;28;20049;-89
2023/04/27 06:36:02;;;;;;;20.02;18.52;;;22.00;99.90;;;;;;5010327;28;20129;-91
2023/04/27 06:38:31;;;;;;;20.65;19.17;;;22.10;99.90;;;;;;5010383;28;20033;-91
2023/04/27 06:40:58;;;;;;;20.60;18.65;;;22.00;99.90;;;;;;5010160;28;20030;-91
2023/04/27 06:43:24;;;;;;;20.88;19.48;;;21.70;99.90;;;;;;5010407;28;20026;-91
2023/04/27 06:45:51;;;;;;;21.00;19.17;;;21.20;99.90;;;;;;5010093;28;20029;-92
2023/04/27 06:48:18;;;;;;;21.40;19.67;;;20.80;99.90;;;;;;5010376;28;20031;-91
2023/04/27 06:50:45;;;;;;;21.80;19.88;;;20.80;99.90;;;;;;4987610;28;20176;-91
2023/04/27 06:53:12;;;;;;;23.38;21.00;;;20.50;99.90;;;;;;5010486;28;20436;-90
2023/04/27 06:55:39;;;;;;;20.67;19.08;;;20.40;99.90;;;;;;5010144;28;20022;-91
2023/04/27 06:58:06;;;;;;;20.85;19.25;;;20.40;99.90;;;;;;5010095;28;20424;-90
2023/04/27 07:00:33;;;;;;;20.35;18.90;;;20.50;99.90;;;;;;5010087;28;20121;-90
2023/04/27 07:03:05;;;;;;;20.27;18.70;;;20.60;99.90;;;;;;5019565;23;20063;-93
2023/04/27 07:05:33;;;;;;;21.23;19.85;;;20.60;99.90;;;;;;5037881;28;20438;-92
2023/04/27 07:07:59;;;;;;;21.25;19.50;;;20.70;99.90;;;;;;4998743;28;20121;-94
2023/04/27 07:10:27;;;;;;;21.80;20.40;;;20.80;99.90;;;;;;4997371;28;20065;-91
2023/04/27 18:02:49;;;;;;;22.65;21.30;;;15.20;99.90;;;;;;6101618;22;2734759;-94
2023/04/27 18:05:16;;;;;;;22.67;21.30;;;15.10;99.90;;;;;;6260597;22;20031;-94
2023/04/27 18:07:45;;;;;;;22.17;20.85;;;15.10;99.90;;;;;;6264297;22;20003;-94
2023/04/27 18:10:12;;;;;;;22.40;21.00;;;15.10;99.90;;;;;;6267080;22;20004;-93
2023/04/27 18:12:38;;;;;;;21.50;20.30;;;15.00;99.90;;;;;;6259636;22;20034;-94
2023/04/27 18:15:05;;;;;;;21.98;20.38;;;15.00;99.90;;;;;;6235091;22;19999;-94
2023/04/27 18:17:32;;;;;;;22.00;20.60;;;14.90;99.90;;;;;;6236174;22;20008;-93
2023/04/27 18:19:59;;;;;;;21.40;19.98;;;14.90;99.90;;;;;;6210285;22;20026;-93
2023/04/27 18:22:26;;;;;;;21.23;19.92;;;14.90;99.90;;;;;;6266066;22;20033;-93
2023/04/27 18:24:52;;;;;;;20.92;19.52;;;14.80;99.90;;;;;;6252961;22;20000;-93
2023/04/27 18:27:19;;;;;;;20.73;19.33;;;14.80;99.90;;;;;;6254758;22;20006;-94
2023/04/27 18:29:45;;;;;;;21.17;19.50;;;14.70;99.90;;;;;;6253838;22;20034;-93
2023/04/27 18:32:12;;;;;;;20.40;19.10;;;14.70;99.90;;;;;;6255050;22;19999;-94
2023/04/27 18:34:38;;;;;;;20.40;19.17;;;14.70;99.90;;;;;;6255325;22;19999;-94
2023/04/27 18:37:05;;;;;;;19.88;18.58;;;14.60;99.90;;;;;;6255577;22;20003;-93
2023/04/27 18:39:31;;;;;;;21.05;19.00;;;14.60;99.90;;;;;;6255483;22;20004;-95
2023/04/27 18:41:57;;;;;;;22.52;20.52;;;14.60;99.90;;;;;;6240215;22;20012;-93
2023/04/27 18:44:24;;;;;;;21.15;19.38;;;14.50;99.90;;;;;;6229564;22;20004;-93
2023/04/27 18:46:50;;;;;;;20.75;19.17;;;14.50;99.90;;;;;;6230459;22;20483;-93
2023/04/27 18:49:17;;;;;;;21.20;19.70;;;14.50;99.90;;;;;;6231409;22;20007;-94
2023/04/27 18:51:44;;;;;;;20.88;19.40;;;14.40;99.90;;;;;;6231482;22;20007;-95
2023/04/27 18:54:10;;;;;;;20.92;19.33;;;14.50;99.90;;;;;;6231363;22;20437;-94
2023/04/27 18:56:37;;;;;;;19.88;18.48;;;14.40;99.90;;;;;;6229382;22;20043;-93
2023/04/27 18:59:03;;;;;;;20.40;18.70;;;14.30;99.90;;;;;;6233053;22;20003;-95
2023/04/27 19:01:31;;;;;;;19.52;18.13;;;14.30;99.90;;;;;;6229195;22;20008;-95
2023/04/27 19:03:58;;;;;;;19.65;18.13;;;14.20;99.90;;;;;;6235563;22;20053;-93
2023/04/27 19:06:25;;;;;;;18.75;17.42;;;14.20;99.90;;;;;;6259599;22;20065;-93
2023/04/27 19:08:51;;;;;;;20.08;18.60;;;14.20;99.90;;;;;;6229895;22;20004;-95
2023/04/27 19:11:21;;;;;;;18.77;17.50;;;14.20;99.90;;;;;;6232900;22;20015;-93
2023/04/27 19:13:48;;;;;;;19.20;17.65;;;14.10;99.90;;;;;;6226279;22;20010;-95
2023/04/27 19:16:15;;;;;;;20.20;19.00;;;14.10;99.90;;;;;;6229238;22;20322;-94
2023/04/27 19:18:42;;;;;;;20.58;19.02;;;14.10;99.90;;;;;;6229021;22;20174;-93
2023/04/27 19:21:09;;;;;;;20.73;19.17;;;14.00;99.90;;;;;;6229012;22;20094;-93
2023/04/27 19:23:35;;;;;;;20.30;18.88;;;14.00;99.90;;;;;;6229022;22;20332;-93
2023/04/27 19:26:02;;;;;;;21.20;19.33;;;14.00;99.90;;;;;;6228710;22;20008;-94
2023/04/27 19:28:28;;;;;;;19.80;18.48;;;14.00;99.90;;;;;;6229747;22;19999;-93
2023/04/27 19:30:55;;;;;;;20.13;18.80;;;14.00;99.90;;;;;;6231558;22;20008;-93
2023/04/27 19:33:22;;;;;;;20.27;18.85;;;14.00;99.90;;;;;;6233103;22;20000;-94
2023/04/27 19:35:48;;;;;;;20.08;18.58;;;14.00;99.90;;;;;;6228211;22;20057;-94
2023/04/27 19:38:15;;;;;;;20.08;18.10;;;14.00;99.90;;;;;;6229254;22;19999;-94
2023/04/27 19:40:41;;;;;;;19.67;18.05;;;14.00;99.90;;;;;;6229474;22;20023;-95
2023/04/27 19:43:09;;;;;;;19.85;18.40;;;13.90;99.90;;;;;;6255501;22;20130;-94
2023/04/27 19:45:37;;;;;;;20.25;18.70;;;13.90;99.90;;;;;;6232421;22;20014;-95
2023/04/27 19:48:05;;;;;;;20.00;18.58;;;13.90;99.90;;;;;;6233993;22;20000;-94
2023/04/27 19:50:31;;;;;;;20.33;18.73;;;13.80;99.90;;;;;;6231964;22;20090;-94
2023/04/27 19:52:58;;;;;;;20.30;18.35;;;13.80;99.90;;;;;;6229974;22;20012;-93
2023/04/27 19:55:25;;;;;;;23.35;19.70;;;13.80;99.90;;;;;;6194350;23;20008;-94
2023/04/27 19:57:52;;;;;;;20.27;18.77;;;13.70;99.90;;;;;;6196205;23;20009;-93
2023/04/27 20:00:20;;;;;;;19.35;18.08;;;13.70;99.90;;;;;;6221177;23;20055;-94
2023/04/27 20:02:48;;;;;;;20.08;18.60;;;13.70;99.90;;;;;;6195853;23;20016;-93
2023/04/27 20:05:15;;;;;;;21.25;19.33;;;13.70;99.90;;;;;;6218692;23;20051;-94
2023/04/27 20:07:41;;;;;;;20.63;19.02;;;13.70;99.90;;;;;;6196005;23;20021;-94
2023/04/27 20:10:08;;;;;;;20.42;18.83;;;13.70;99.90;;;;;;6221183;23;20008;-93
2023/04/27 20:12:34;;;;;;;20.35;18.90;;;13.70;99.90;;;;;;6194571;23;20032;-94
2023/04/27 20:15:08;;;;;;;20.70;19.08;;;13.60;99.90;;;;;;6220857;23;20009;-94
2023/04/27 20:17:34;;;;;;;21.15;19.42;;;13.60;99.90;;;;;;6218717;23;20044;-93
2023/04/27 20:20:01;;;;;;;23.25;20.75;;;13.60;99.90;;;;;;6193181;23;20095;-94
2023/04/27 20:22:27;;;;;;;23.45;21.15;;;13.50;99.90;;;;;;6217613;23;20012;-94
2023/04/27 20:24:57;;;;;;;22.40;20.52;;;13.40;99.90;;;;;;6191501;23;20011;-93
2023/04/27 20:27:24;;;;;;;22.20;19.98;;;13.40;99.90;;;;;;6218062;23;20035;-94
2023/04/27 20:29:50;;;;;;;20.80;19.23;;;13.30;99.90;;;;;;6193508;23;20457;-95
2023/04/27 20:32:17;;;;;;;20.70;19.00;;;13.30;99.90;;;;;;6223688;23;20047;-95
2023/04/27 20:34:43;;;;;;;21.27;19.70;;;13.30;99.90;;;;;;6221750;23;20425;-93
2023/04/27 20:37:10;;;;;;;21.33;19.70;;;13.20;99.90;;;;;;6221154;23;20008;-95
2023/04/27 20:39:36;;;;;;;21.27;19.77;;;13.20;99.90;;;;;;6223615;23;20446;-95
2023/04/27 20:42:03;;;;;;;21.27;19.58;;;13.00;99.90;;;;;;6222549;23;20008;-94
2023/04/27 20:44:31;;;;;;;22.27;20.20;;;13.00;99.90;;;;;;6198362;23;20385;-94
2023/04/27 20:46:57;;;;;;;21.83;20.15;;;12.80;99.90;;;;;;6221556;23;20032;-96
2023/04/27 20:49:24;;;;;;;22.70;20.65;;;12.70;99.90;;;;;;6221455;23;20028;-93
2023/04/27 20:51:50;;;;;;;21.60;19.80;;;12.60;99.90;;;;;;6221532;23;20306;-95
2023/04/27 20:54:17;;;;;;;21.67;20.02;;;12.50;99.90;;;;;;6246798;23;20062;-94
2023/04/27 20:56:44;;;;;;;21.13;19.60;;;12.40;99.90;;;;;;6221175;23;20026;-94
2023/04/27 20:59:10;;;;;;;21.88;20.05;;;12.40;99.90;;;;;;6224315;23;20299;-94
2023/04/27 21:01:36;;;;;;;21.48;19.95;;;12.40;99.90;;;;;;6221921;22;20055;-93
2023/04/27 21:04:03;;;;;;;23.30;21.25;;;12.30;99.90;;;;;;6226243;22;20003;-94
2023/04/27 21:06:30;;;;;;;24.30;22.15;;;12.30;99.90;;;;;;6226282;22;20487;-94
2023/04/27 21:08:58;;;;;;;24.98;22.70;;;12.30;99.90;;;;;;6227005;22;20123;-94
2023/04/27 21:11:25;;;;;;;25.02;22.95;;;12.30;99.90;;;;;;6225842;22;20026;-93
2023/04/27 21:13:52;;;;;;;24.98;22.80;;;12.30;99.90;;;;;;6226119;22;20349;-94
2023/04/27 21:16:18;;;;;;;23.35;21.38;;;12.30;99.90;;;;;;6252233;22;20011;-94
2023/04/27 21:18:44;;;;;;;22.45;20.25;;;12.30;99.90;;;;;;6226542;22;20039;-94
2023/04/27 21:21:10;;;;;;;22.55;20.60;;;12.30;99.90;;;;;;6226832;22;20020;-93
2023/04/27 21:23:37;;;;;;;21.60;20.02;;;12.30;99.90;;;;;;6226989;22;20000;-94
2023/04/27 21:26:03;;;;;;;21.25;19.75;;;12.30;99.90;;;;;;6226852;22;20011;-94
2023/04/27 21:28:30;;;;;;;22.63;20.38;;;12.30;99.90;;;;;;6229320;22;20498;-94
2023/04/27 21:30:56;;;;;;;21.67;19.88;;;12.20;99.90;;;;;;6225910;22;20445;-94
2023/04/27 21:33:22;;;;;;;21.88;19.90;;;12.20;99.90;;;;;;6225940;22;20007;-94
2023/04/27 21:35:49;;;;;;;21.85;19.85;;;12.20;99.90;;;;;;6226174;22;20004;-94
2023/04/27 21:38:15;;;;;;;21.38;19.85;;;12.20;99.90;;;;;;6226001;22;20007;-93
2023/04/27 21:40:41;;;;;;;21.35;19.60;;;12.10;99.90;;;;;;6250829;22;20016;-93
2023/04/27 21:43:08;;;;;;;21.23;19.63;;;12.10;99.90;;;;;;6225540;22;20016;-94
2023/04/27 21:45:35;;;;;;;21.80;20.20;;;12.10;99.90;;;;;;6225676;22;20007;-94
2023/04/27 21:48:01;;;;;;;21.50;20.00;;;12.00;99.90;;;;;;6225671;22;20004;-94
2023/04/27 21:50:27;;;;;;;22.48;20.30;;;12.00;99.90;;;;;;6225773;22;20011;-94
2023/04/27 21:52:54;;;;;;;23.58;21.55;;;12.00;99.90;;;;;;6225561;22;20023;-94
2023/04/27 21:55:20;;;;;;;22.27;20.60;;;12.00;99.90;;;;;;6226800;22;20011;-94
2023/04/27 21:57:46;;;;;;;22.02;20.23;;;12.00;99.90;;;;;;6225957;22;20003;-94
2023/04/27 22:00:13;;;;;;;22.95;20.90;;;11.90;99.90;;;;;;6225636;22;20094;-94
2023/04/27 22:02:47;;;;;;;22.40;20.40;;;11.90;99.90;;;;;;6228861;22;20012;-94
2023/04/27 22:05:15;;;;;;;22.27;20.08;;;11.80;99.90;;;;;;6227937;22;20042;-94
2023/04/27 22:07:46;;;;;;;22.15;19.95;;;11.80;99.90;;;;;;6227697;22;20006;-93
2023/04/27 22:10:13;;;;;;;20.80;19.40;;;11.70;99.90;;;;;;6227768;22;20011;-95
2023/04/27 22:12:39;;;;;;;20.88;19.10;;;11.60;99.90;;;;;;6228608;22;20004;-94
2023/04/27 22:15:06;;;;;;;20.45;18.75;;;11.50;99.90;;;;;;6228295;22;20483;-94
2023/04/27 22:17:32;;;;;;;20.55;18.80;;;11.50;99.90;;;;;;6227902;22;20082;-94
2023/04/27 22:19:58;;;;;;;19.63;18.20;;;11.50;99.90;;;;;;6253114;22;20019;-94
2023/04/27 23:51:58;;;;;;;16.02;14.38;;;11.10;99.90;;;;;;6285776;22;20020;-94
2023/04/27 23:54:35;;;;;;;14.65;13.10;;;11.00;99.90;;;;;;6139827;23;20012;-94
